sensor_id;sensor_type;location;lat;lon;timestamp;pressure;altitude;pressure_sealevel;temperature;humidity
76046;BME280;64741;41.730;44.788;2024-02-15T00:04:54;988;;;23.3;43.9
76046;BME280;64741;41.730;44.788;2024-02-15T00:09:22;988;;;23.3;44
76046;BME280;64741;41.730;44.788;2024-02-15T00:14:42;988;;;23.3;43.9
76046;BME280;64741;41.730;44.788;2024-02-15T00:19:54;988;;;23.3;43.9
76046;BME280;64741;41.730;44.788;2024-02-15T00:24:42;987.9;;;23.3;43.9
76046;BME280;64741;41.730;44.788;2024-02-15T00:29:33;987.9;;;23.3;43.9
76046;BME280;64741;41.730;44.788;2024-02-15T00:34:52;987.9;;;23.3;43.8
76046;BME280;64741;41.730;44.788;2024-02-15T00:39:48;988;;;23.3;43.8
76046;BME280;64741;41.730;44.788;2024-02-15T00:44:54;988;;;23.3;43.7
76046;BME280;64741;41.730;44.788;2024-02-15T00:49:06;987.9;;;23.3;43.7
76046;BME280;64741;41.730;44.788;2024-02-15T00:54:42;988;;;23.3;43.7
76046;BME280;64741;41.730;44.788;2024-02-15T00:59:52;988;;;23.3;43.7
76046;BME280;64741;41.730;44.788;2024-02-15T01:04:52;987.9;;;23.3;43.7
76046;BME280;64741;41.730;44.788;2024-02-15T01:09:14;987.9;;;23.3;43.7
76046;BME280;64741;41.730;44.788;2024-02-15T01:14:52;987.8;;;23.3;43.7
76046;BME280;64741;41.730;44.788;2024-02-15T01:19:52;987.9;;;23.3;43.8
76046;BME280;64741;41.730;44.788;2024-02-15T01:24:48;987.8;;;23.3;43.8
76046;BME280;64741;41.730;44.788;2024-02-15T01:29:52;987.8;;;23.3;43.9
76046;BME280;64741;41.730;44.788;2024-02-15T01:34:42;987.7;;;23.3;43.7
76046;BME280;64741;41.730;44.788;2024-02-15T01:39:42;987.8;;;23.3;43.6
76046;BME280;64741;41.730;44.788;2024-02-15T01:44:42;987.9;;;23.3;43.6
76046;BME280;64741;41.730;44.788;2024-02-15T01:49:42;988;;;23.3;43.5
76046;BME280;64741;41.730;44.788;2024-02-15T01:54:54;988;;;23.3;43.4
76046;BME280;64741;41.730;44.788;2024-02-15T01:59:42;988.1;;;23.2;43.4
76046;BME280;64741;41.730;44.788;2024-02-15T02:04:42;988.1;;;23.2;43.5
76046;BME280;64741;41.730;44.788;2024-02-15T02:09:52;988.1;;;23.2;43.4
76046;BME280;64741;41.730;44.788;2024-02-15T02:14:46;988.2;;;23.2;43.4
76046;BME280;64741;41.730;44.788;2024-02-15T02:19:46;988.4;;;23.2;43.4
76046;BME280;64741;41.730;44.788;2024-02-15T02:24:57;988.4;;;23.2;43.5
76046;BME280;64741;41.730;44.788;2024-02-15T02:29:42;988.4;;;23.2;43.4
76046;BME280;64741;41.730;44.788;2024-02-15T02:34:52;988.5;;;23.2;43.5
76046;BME280;64741;41.730;44.788;2024-02-15T02:39:32;988.6;;;23.2;43.5
76046;BME280;64741;41.730;44.788;2024-02-15T02:44:44;988.6;;;23.2;43.5
76046;BME280;64741;41.730;44.788;2024-02-15T02:49:46;988.5;;;23.2;43.6
76046;BME280;64741;41.730;44.788;2024-02-15T02:54:52;988.4;;;23.2;43.6
76046;BME280;64741;41.730;44.788;2024-02-15T02:59:54;988.4;;;23.2;43.6
76046;BME280;64741;41.730;44.788;2024-02-15T03:04:54;988.4;;;23.2;43.7
76046;BME280;64741;41.730;44.788;2024-02-15T03:09:46;988.4;;;23.2;43.6
76046;BME280;64741;41.730;44.788;2024-02-15T03:14:54;988.5;;;23.2;43.7
76046;BME280;64741;41.730;44.788;2024-02-15T03:19:52;988.4;;;23.2;43.8
76046;BME280;64741;41.730;44.788;2024-02-15T03:24:40;988.6;;;23.2;43.7
76046;BME280;64741;41.730;44.788;2024-02-15T03:29:52;988.7;;;23.2;43.8
76046;BME280;64741;41.730;44.788;2024-02-15T03:34:40;988.6;;;23.1;43.8
76046;BME280;64741;41.730;44.788;2024-02-15T03:39:32;988.6;;;23.1;43.8
76046;BME280;64741;41.730;44.788;2024-02-15T03:44:52;988.5;;;23.1;43.8
76046;BME280;64741;41.730;44.788;2024-02-15T03:49:52;988.5;;;23.1;43.7
76046;BME280;64741;41.730;44.788;2024-02-15T03:54:46;988.5;;;23.1;43.7
76046;BME280;64741;41.730;44.788;2024-02-15T03:59:42;988.5;;;23.2;43.8
76046;BME280;64741;41.730;44.788;2024-02-15T04:04:52;988.5;;;23.1;43.8
76046;BME280;64741;41.730;44.788;2024-02-15T04:09:54;988.5;;;23.1;43.9
76046;BME280;64741;41.730;44.788;2024-02-15T04:14:42;988.5;;;23.1;44
76046;BME280;64741;41.730;44.788;2024-02-15T04:19:36;988.7;;;23.1;43.9
76046;BME280;64741;41.730;44.788;2024-02-15T04:24:54;988.8;;;23.1;44
76046;BME280;64741;41.730;44.788;2024-02-15T04:29:52;988.9;;;23.1;44
76046;BME280;64741;41.730;44.788;2024-02-15T04:34:40;989;;;23.2;43.9
76046;BME280;64741;41.730;44.788;2024-02-15T04:39:54;989.1;;;23.1;43.9
76046;BME280;64741;41.730;44.788;2024-02-15T04:44:48;989.2;;;23.1;43.8
76046;BME280;64741;41.730;44.788;2024-02-15T04:49:54;989.3;;;23.1;43.9
76046;BME280;64741;41.730;44.788;2024-02-15T04:54:54;989.4;;;23.1;43.9
76046;BME280;64741;41.730;44.788;2024-02-15T04:59:42;989.5;;;23.1;43.9
76046;BME280;64741;41.730;44.788;2024-02-15T05:04:54;989.5;;;23.1;43.9
76046;BME280;64741;41.730;44.788;2024-02-15T05:09:42;989.6;;;23.1;43.9
76046;BME280;64741;41.730;44.788;2024-02-15T05:14:48;989.7;;;23.1;43.9
76046;BME280;64741;41.730;44.788;2024-02-15T05:19:52;989.7;;;23.1;43.9
76046;BME280;64741;41.730;44.788;2024-02-15T05:24:52;989.8;;;23.1;43.9
76046;BME280;64741;41.730;44.788;2024-02-15T05:29:48;989.8;;;23.1;43.9
76046;BME280;64741;41.730;44.788;2024-02-15T05:34:42;989.8;;;23.1;43.9
76046;BME280;64741;41.730;44.788;2024-02-15T05:39:52;989.8;;;23.1;43.9
76046;BME280;64741;41.730;44.788;2024-02-15T05:44:54;989.8;;;23.1;43.9
76046;BME280;64741;41.730;44.788;2024-02-15T05:49:40;989.8;;;23.1;43.8
76046;BME280;64741;41.730;44.788;2024-02-15T05:54:22;989.8;;;23.1;43.9
76046;BME280;64741;41.730;44.788;2024-02-15T05:59:52;989.8;;;23.1;43.8
76046;BME280;64741;41.730;44.788;2024-02-15T06:04:14;989.9;;;23.1;43.9
76046;BME280;64741;41.730;44.788;2024-02-15T06:09:48;989.9;;;23.1;43.9
76046;BME280;64741;41.730;44.788;2024-02-15T06:14:52;989.9;;;23.1;43.9
76046;BME280;64741;41.730;44.788;2024-02-15T06:19:46;989.9;;;23.1;43.9
76046;BME280;64741;41.730;44.788;2024-02-15T06:24:48;989.8;;;23.1;43.8
76046;BME280;64741;41.730;44.788;2024-02-15T06:29:54;989.8;;;23.1;43.8
76046;BME280;64741;41.730;44.788;2024-02-15T06:34:28;989.8;;;23.1;43.8
76046;BME280;64741;41.730;44.788;2024-02-15T06:39:48;989.8;;;23.1;43.8
76046;BME280;64741;41.730;44.788;2024-02-15T06:44:42;989.8;;;23.1;43.9
76046;BME280;64741;41.730;44.788;2024-02-15T06:49:54;989.8;;;23.1;43.9
76046;BME280;64741;41.730;44.788;2024-02-15T06:54:48;989.6;;;23.1;43.8
76046;BME280;64741;41.730;44.788;2024-02-15T06:59:34;989.7;;;23.1;43.7
76046;BME280;64741;41.730;44.788;2024-02-15T07:04:48;989.8;;;23.2;43.7
76046;BME280;64741;41.730;44.788;2024-02-15T07:09:52;989.8;;;23.2;43.8
76046;BME280;64741;41.730;44.788;2024-02-15T07:14:48;989.8;;;23.2;43.8
76046;BME280;64741;41.730;44.788;2024-02-15T07:19:54;989.9;;;23.2;43.8
76046;BME280;64741;41.730;44.788;2024-02-15T07:24:54;990.1;;;23.2;43.9
76046;BME280;64741;41.730;44.788;2024-02-15T07:29:42;990.1;;;23.3;44.2
76046;BME280;64741;41.730;44.788;2024-02-15T07:34:50;990.1;;;23.3;44.3
76046;BME280;64741;41.730;44.788;2024-02-15T07:39:50;990.2;;;23.3;44.4
76046;BME280;64741;41.730;44.788;2024-02-15T07:44:38;990.3;;;23.3;44.4
76046;BME280;64741;41.730;44.788;2024-02-15T07:49:52;990.3;;;23.3;44.5
76046;BME280;64741;41.730;44.788;2024-02-15T07:54:50;990.3;;;23.3;44.5
76046;BME280;64741;41.730;44.788;2024-02-15T07:59:48;990.4;;;23.4;44.5
76046;BME280;64741;41.730;44.788;2024-02-15T08:04:50;990.6;;;23.4;44.4
76046;BME280;64741;41.730;44.788;2024-02-15T08:09:42;990.7;;;23.4;44.3
76046;BME280;64741;41.730;44.788;2024-02-15T08:14:54;990.7;;;23.4;44.4
76046;BME280;64741;41.730;44.788;2024-02-15T08:19:42;990.6;;;23.4;44.4
76046;BME280;64741;41.730;44.788;2024-02-15T08:24:42;990.7;;;23.4;44.2
76046;BME280;64741;41.730;44.788;2024-02-15T08:29:54;990.8;;;23.4;44.2
76046;BME280;64741;41.730;44.788;2024-02-15T08:34:42;990.9;;;23.4;44.1
76046;BME280;64741;41.730;44.788;2024-02-15T08:39:42;991;;;23.4;44.2
76046;BME280;64741;41.730;44.788;2024-02-15T08:44:52;991;;;23.3;44.3
76046;BME280;64741;41.730;44.788;2024-02-15T08:49:48;991;;;23.3;44.2
76046;BME280;64741;41.730;44.788;2024-02-15T08:54:48;991;;;23.3;44.2
76046;BME280;64741;41.730;44.788;2024-02-15T08:59:54;990.9;;;23.3;44.2
76046;BME280;64741;41.730;44.788;2024-02-15T09:04:40;990.9;;;23.3;44.2
76046;BME280;64741;41.730;44.788;2024-02-15T09:09:52;990.8;;;23.4;44.1
76046;BME280;64741;41.730;44.788;2024-02-15T09:14:50;990.7;;;23.3;44.1
76046;BME280;64741;41.730;44.788;2024-02-15T09:19:48;990.5;;;23.3;44.1
76046;BME280;64741;41.730;44.788;2024-02-15T09:24:52;990.5;;;23.3;44.1
76046;BME280;64741;41.730;44.788;2024-02-15T09:29:42;990.5;;;23.3;44.1
76046;BME280;64741;41.730;44.788;2024-02-15T09:34:48;990.5;;;23.3;44.1
76046;BME280;64741;41.730;44.788;2024-02-15T09:39:52;990.4;;;23.3;44.1
76046;BME280;64741;41.730;44.788;2024-02-15T09:44:42;990.3;;;23.3;44.1
76046;BME280;64741;41.730;44.788;2024-02-15T09:49:54;990.3;;;23.3;44
76046;BME280;64741;41.730;44.788;2024-02-15T09:54:41;990.3;;;23.3;44.1
76046;BME280;64741;41.730;44.788;2024-02-15T09:59:42;990.3;;;23.4;44.3
76046;BME280;64741;41.730;44.788;2024-02-15T10:04:54;990.2;;;23.4;44.5
76046;BME280;64741;41.730;44.788;2024-02-15T10:09:32;990;;;23.4;44.6
76046;BME280;64741;41.730;44.788;2024-02-15T10:14:45;989.9;;;23.4;44.8
76046;BME280;64741;41.730;44.788;2024-02-15T10:20:02;989.8;;;23.5;45.3
76046;BME280;64741;41.730;44.788;2024-02-15T10:24:48;989.8;;;23.5;46
76046;BME280;64741;41.730;44.788;2024-02-15T10:29:29;989.8;;;23.5;46.8
76046;BME280;64741;41.730;44.788;2024-02-15T10:34:27;989.8;;;23.5;46.8
76046;BME280;64741;41.730;44.788;2024-02-15T10:39:42;989.8;;;23.5;46.6
76046;BME280;64741;41.730;44.788;2024-02-15T10:44:52;989.8;;;23.5;46.7
76046;BME280;64741;41.730;44.788;2024-02-15T10:49:42;989.7;;;23.5;46.9
76046;BME280;64741;41.730;44.788;2024-02-15T10:54:56;989.7;;;23.5;47.6
76046;BME280;64741;41.730;44.788;2024-02-15T10:59:53;989.7;;;23.5;47.6
76046;BME280;64741;41.730;44.788;2024-02-15T11:04:51;989.8;;;23.6;48.2
76046;BME280;64741;41.730;44.788;2024-02-15T11:09:53;989.8;;;23.6;48.4
76046;BME280;64741;41.730;44.788;2024-02-15T11:14:54;989.8;;;23.6;48.5
76046;BME280;64741;41.730;44.788;2024-02-15T11:19:47;989.8;;;23.6;48.6
76046;BME280;64741;41.730;44.788;2024-02-15T11:24:55;989.8;;;23.6;48.6
76046;BME280;64741;41.730;44.788;2024-02-15T11:29:55;989.9;;;23.6;48.8
76046;BME280;64741;41.730;44.788;2024-02-15T11:34:43;989.9;;;23.6;48.8
76046;BME280;64741;41.730;44.788;2024-02-15T11:39:58;990;;;23.6;48.9
76046;BME280;64741;41.730;44.788;2024-02-15T11:44:41;990.1;;;23.6;49.2
76046;BME280;64741;41.730;44.788;2024-02-15T11:49:49;990;;;23.6;49.2
76046;BME280;64741;41.730;44.788;2024-02-15T11:54:53;990.1;;;23.7;49.3
76046;BME280;64741;41.730;44.788;2024-02-15T11:59:53;990.1;;;23.7;49.5
76046;BME280;64741;41.730;44.788;2024-02-15T12:04:49;990.1;;;23.6;49.6
76046;BME280;64741;41.730;44.788;2024-02-15T12:09:43;990.1;;;23.7;49.6
76046;BME280;64741;41.730;44.788;2024-02-15T12:14:57;990.1;;;23.7;49.7
76046;BME280;64741;41.730;44.788;2024-02-15T12:19:55;990.2;;;23.7;49.6
76046;BME280;64741;41.730;44.788;2024-02-15T12:24:43;990.2;;;23.7;49.8
76046;BME280;64741;41.730;44.788;2024-02-15T12:29:33;990.2;;;23.7;50.1
76046;BME280;64741;41.730;44.788;2024-02-15T12:39:53;990.3;;;23.7;49.9
76046;BME280;64741;41.730;44.788;2024-02-15T12:44:49;990.1;;;23.4;50.1
76046;BME280;64741;41.730;44.788;2024-02-15T12:49:53;990.1;;;23.4;50.6
76046;BME280;64741;41.730;44.788;2024-02-15T12:54:49;990;;;23.5;51
76046;BME280;64741;41.730;44.788;2024-02-15T12:59:09;990;;;23.5;51.5
76046;BME280;64741;41.730;44.788;2024-02-15T13:04:57;989.9;;;23.6;51.4
76046;BME280;64741;41.730;44.788;2024-02-15T13:09:49;989.9;;;23.6;51.5
76046;BME280;64741;41.730;44.788;2024-02-15T13:14:49;989.9;;;23.6;51.2
76046;BME280;64741;41.730;44.788;2024-02-15T13:19:44;990.1;;;23.6;51.3
76046;BME280;64741;41.730;44.788;2024-02-15T13:24:55;990.2;;;23.6;51.3
76046;BME280;64741;41.730;44.788;2024-02-15T13:29:49;990.2;;;23.6;51.2
76046;BME280;64741;41.730;44.788;2024-02-15T13:34:53;990.3;;;23.6;51.2
76046;BME280;64741;41.730;44.788;2024-02-15T13:39:47;990.3;;;23.6;51.2
76046;BME280;64741;41.730;44.788;2024-02-15T13:44:41;990.3;;;23.6;51.3
76046;BME280;64741;41.730;44.788;2024-02-15T13:49:51;990.3;;;23.6;51.4
76046;BME280;64741;41.730;44.788;2024-02-15T13:54:53;990.3;;;23.7;51.4
76046;BME280;64741;41.730;44.788;2024-02-15T13:59:41;990.3;;;23.7;51.4
76046;BME280;64741;41.730;44.788;2024-02-15T14:04:41;990.3;;;23.7;51.4
76046;BME280;64741;41.730;44.788;2024-02-15T14:09:55;990.3;;;23.7;51.2
76046;BME280;64741;41.730;44.788;2024-02-15T14:14:53;990.3;;;23.7;51
76046;BME280;64741;41.730;44.788;2024-02-15T14:19:49;990.3;;;23.7;50.7
76046;BME280;64741;41.730;44.788;2024-02-15T14:24:53;990.4;;;23.7;50.4
76046;BME280;64741;41.730;44.788;2024-02-15T14:29:49;990.5;;;23.6;50.2
76046;BME280;64741;41.730;44.788;2024-02-15T14:34:49;990.5;;;23.6;49.9
76046;BME280;64741;41.730;44.788;2024-02-15T14:39:41;990.5;;;23.6;49.7
76046;BME280;64741;41.730;44.788;2024-02-15T14:44:49;990.6;;;23.6;49.9
76046;BME280;64741;41.730;44.788;2024-02-15T14:49:49;990.7;;;23.6;50.2
76046;BME280;64741;41.730;44.788;2024-02-15T14:54:43;990.8;;;23.6;50.4
76046;BME280;64741;41.730;44.788;2024-02-15T14:59:53;991;;;23.6;50.5
76046;BME280;64741;41.730;44.788;2024-02-15T15:04:49;991;;;23.6;50.5
76046;BME280;64741;41.730;44.788;2024-02-15T15:09:53;991.1;;;23.6;50.2
76046;BME280;64741;41.730;44.788;2024-02-15T15:14:49;991.3;;;23.6;49.8
76046;BME280;64741;41.730;44.788;2024-02-15T15:19:53;991.4;;;23.6;49.6
76046;BME280;64741;41.730;44.788;2024-02-15T15:24:49;991.5;;;23.6;49.5
76046;BME280;64741;41.730;44.788;2024-02-15T15:29:55;991.6;;;23.6;49.3
76046;BME280;64741;41.730;44.788;2024-02-15T15:34:55;991.6;;;23.6;49.2
76046;BME280;64741;41.730;44.788;2024-02-15T15:39:43;991.7;;;23.6;49.1
76046;BME280;64741;41.730;44.788;2024-02-15T15:44:53;991.7;;;23.6;48.9
76046;BME280;64741;41.730;44.788;2024-02-15T15:49:53;991.7;;;23.6;48.7
76046;BME280;64741;41.730;44.788;2024-02-15T15:54:49;991.8;;;23.6;48.5
76046;BME280;64741;41.730;44.788;2024-02-15T15:59:53;991.8;;;23.6;48.5
76046;BME280;64741;41.730;44.788;2024-02-15T16:04:45;991.8;;;23.6;48.3
76046;BME280;64741;41.730;44.788;2024-02-15T16:09:49;991.9;;;23.6;48.2
76046;BME280;64741;41.730;44.788;2024-02-15T16:14:53;992;;;23.6;48.1
76046;BME280;64741;41.730;44.788;2024-02-15T16:19:43;991.9;;;23.6;48.1
76046;BME280;64741;41.730;44.788;2024-02-15T16:24:55;991.9;;;23.6;47.9
76046;BME280;64741;41.730;44.788;2024-02-15T16:29:27;991.8;;;23.6;47.8
76046;BME280;64741;41.730;44.788;2024-02-15T16:34:43;991.8;;;23.5;47.7
76046;BME280;64741;41.730;44.788;2024-02-15T16:39:55;991.7;;;23.5;47.6
76046;BME280;64741;41.730;44.788;2024-02-15T16:44:43;991.8;;;23.5;47.6
76046;BME280;64741;41.730;44.788;2024-02-15T16:49:44;991.7;;;23.5;47.4
76046;BME280;64741;41.730;44.788;2024-02-15T16:54:54;991.8;;;23.5;47.5
76046;BME280;64741;41.730;44.788;2024-02-15T16:59:49;991.9;;;23.5;47.6
76046;BME280;64741;41.730;44.788;2024-02-15T17:04:49;991.9;;;23.5;47.5
76046;BME280;64741;41.730;44.788;2024-02-15T17:09:56;991.9;;;23.5;47.5
76046;BME280;64741;41.730;44.788;2024-02-15T17:14:43;991.9;;;23.5;47.4
76046;BME280;64741;41.730;44.788;2024-02-15T17:19:55;992;;;23.4;47.4
76046;BME280;64741;41.730;44.788;2024-02-15T17:24:43;992;;;23.4;47.3
76046;BME280;64741;41.730;44.788;2024-02-15T17:29:55;992;;;23.5;47.2
76046;BME280;64741;41.730;44.788;2024-02-15T17:34:49;992.1;;;23.4;47.2
76046;BME280;64741;41.730;44.788;2024-02-15T17:39:53;992.1;;;23.4;47.2
76046;BME280;64741;41.730;44.788;2024-02-15T17:44:55;992.1;;;23.4;47.1
76046;BME280;64741;41.730;44.788;2024-02-15T17:49:55;992.1;;;23.4;47.1
76046;BME280;64741;41.730;44.788;2024-02-15T17:54:49;992.2;;;23.4;47.1
76046;BME280;64741;41.730;44.788;2024-02-15T17:59:15;992.2;;;23.4;47.1
76046;BME280;64741;41.730;44.788;2024-02-15T18:04:55;992.2;;;23.4;47
76046;BME280;64741;41.730;44.788;2024-02-15T18:09:43;992.2;;;23.4;47
76046;BME280;64741;41.730;44.788;2024-02-15T18:14:55;992.2;;;23.4;47
76046;BME280;64741;41.730;44.788;2024-02-15T18:19:43;992.3;;;23.4;46.9
76046;BME280;64741;41.730;44.788;2024-02-15T18:24:43;992.3;;;23.4;46.9
76046;BME280;64741;41.730;44.788;2024-02-15T18:29:53;992.2;;;23.3;46.9
76046;BME280;64741;41.730;44.788;2024-02-15T18:34:49;992.3;;;23.4;46.9
76046;BME280;64741;41.730;44.788;2024-02-15T18:39:49;992.3;;;23.3;46.8
76046;BME280;64741;41.730;44.788;2024-02-15T18:44:55;992.3;;;23.3;46.8
76046;BME280;64741;41.730;44.788;2024-02-15T18:49:45;992.4;;;23.4;46.8
76046;BME280;64741;41.730;44.788;2024-02-15T18:54:55;992.3;;;23.3;46.7
76046;BME280;64741;41.730;44.788;2024-02-15T18:59:34;992.4;;;23.3;46.7
76046;BME280;64741;41.730;44.788;2024-02-15T19:04:55;992.4;;;23.3;46.6
76046;BME280;64741;41.730;44.788;2024-02-15T19:09:49;992.5;;;23.3;46.6
76046;BME280;64741;41.730;44.788;2024-02-15T19:14:53;992.5;;;23.3;46.5
76046;BME280;64741;41.730;44.788;2024-02-15T19:19:55;992.4;;;23.3;46.5
76046;BME280;64741;41.730;44.788;2024-02-15T19:24:44;992.5;;;23.3;46.4
76046;BME280;64741;41.730;44.788;2024-02-15T19:29:49;992.5;;;23.3;46.4
76046;BME280;64741;41.730;44.788;2024-02-15T19:34:53;992.5;;;23.3;46.5
76046;BME280;64741;41.730;44.788;2024-02-15T19:39:55;992.5;;;23.3;46.6
76046;BME280;64741;41.730;44.788;2024-02-15T19:44:44;992.6;;;23.3;46.6
76046;BME280;64741;41.730;44.788;2024-02-15T19:49:57;992.6;;;23.3;46.6
76046;BME280;64741;41.730;44.788;2024-02-15T19:54:43;992.6;;;23.4;46.6
76046;BME280;64741;41.730;44.788;2024-02-15T19:59:51;992.7;;;23.4;46.5
76046;BME280;64741;41.730;44.788;2024-02-15T20:04:53;992.7;;;23.4;46.5
76046;BME280;64741;41.730;44.788;2024-02-15T20:09:53;992.7;;;23.4;46.5
76046;BME280;64741;41.730;44.788;2024-02-15T20:14:47;992.7;;;23.5;46.4
76046;BME280;64741;41.730;44.788;2024-02-15T20:19:41;992.8;;;23.5;46.3
76046;BME280;64741;41.730;44.788;2024-02-15T20:24:51;992.8;;;23.5;46.2
76046;BME280;64741;41.730;44.788;2024-02-15T20:29:53;992.8;;;23.5;46.2
76046;BME280;64741;41.730;44.788;2024-02-15T20:34:41;992.9;;;23.5;46.1
76046;BME280;64741;41.730;44.788;2024-02-15T20:39:39;992.9;;;23.5;45.9
76046;BME280;64741;41.730;44.788;2024-02-15T20:44:53;992.9;;;23.5;45.8
76046;BME280;64741;41.730;44.788;2024-02-15T20:49:51;993;;;23.5;45.7
76046;BME280;64741;41.730;44.788;2024-02-15T20:54:47;993;;;23.4;45.6
76046;BME280;64741;41.730;44.788;2024-02-15T20:59:37;993.1;;;23.4;45.5
76046;BME280;64741;41.730;44.788;2024-02-15T21:04:47;993.1;;;23.4;45.5
76046;BME280;64741;41.730;44.788;2024-02-15T21:09:47;993.1;;;23.4;45.4
76046;BME280;64741;41.730;44.788;2024-02-15T21:14:53;993.1;;;23.4;45.6
76046;BME280;64741;41.730;44.788;2024-02-15T21:19:39;993.1;;;23.4;45.6
76046;BME280;64741;41.730;44.788;2024-02-15T21:24:47;993.1;;;23.5;45.7
76046;BME280;64741;41.730;44.788;2024-02-15T21:29:41;993.2;;;23.5;45.6
76046;BME280;64741;41.730;44.788;2024-02-15T21:34:53;993.2;;;23.5;45.6
76046;BME280;64741;41.730;44.788;2024-02-15T21:39:27;993.2;;;23.5;45.7
76046;BME280;64741;41.730;44.788;2024-02-15T21:44:51;993.2;;;23.5;45.7
76046;BME280;64741;41.730;44.788;2024-02-15T21:49:47;993.3;;;23.5;45.7
76046;BME280;64741;41.730;44.788;2024-02-15T21:54:51;993.4;;;23.5;45.7
76046;BME280;64741;41.730;44.788;2024-02-15T21:59:31;993.4;;;23.5;45.6
76046;BME280;64741;41.730;44.788;2024-02-15T22:04:53;993.4;;;23.5;45.6
76046;BME280;64741;41.730;44.788;2024-02-15T22:09:53;993.4;;;23.5;45.6
76046;BME280;64741;41.730;44.788;2024-02-15T22:14:41;993.4;;;23.5;45.6
76046;BME280;64741;41.730;44.788;2024-02-15T22:19:33;993.4;;;23.5;45.6
76046;BME280;64741;41.730;44.788;2024-02-15T22:24:51;993.5;;;23.5;45.6
76046;BME280;64741;41.730;44.788;2024-02-15T22:29:31;993.5;;;23.5;45.5
76046;BME280;64741;41.730;44.788;2024-02-15T22:34:51;993.5;;;23.5;45.5
76046;BME280;64741;41.730;44.788;2024-02-15T22:39:51;993.5;;;23.5;45.5
76046;BME280;64741;41.730;44.788;2024-02-15T22:44:47;993.5;;;23.5;45.5
76046;BME280;64741;41.730;44.788;2024-02-15T22:49:43;993.5;;;23.5;45.5
76046;BME280;64741;41.730;44.788;2024-02-15T22:59:53;993.5;;;23.5;45.4
76046;BME280;64741;41.730;44.788;2024-02-15T23:04:41;993.4;;;23.5;45.4
76046;BME280;64741;41.730;44.788;2024-02-15T23:09:53;993.4;;;23.5;45.3
76046;BME280;64741;41.730;44.788;2024-02-15T23:14:47;993.4;;;23.5;45.2
76046;BME280;64741;41.730;44.788;2024-02-15T23:19:51;993.3;;;23.5;45.3
76046;BME280;64741;41.730;44.788;2024-02-15T23:24:47;993.3;;;23.5;45
76046;BME280;64741;41.730;44.788;2024-02-15T23:29:51;993.3;;;23.5;45.1
76046;BME280;64741;41.730;44.788;2024-02-15T23:34:19;993.2;;;23.5;45
76046;BME280;64741;41.730;44.788;2024-02-15T23:39:53;993.2;;;23.5;44.9
76046;BME280;64741;41.730;44.788;2024-02-15T23:44:31;993.2;;;23.5;45
76046;BME280;64741;41.730;44.788;2024-02-15T23:49:39;993.3;;;23.5;45.2
76046;BME280;64741;41.730;44.788;2024-02-15T23:54:49;993.3;;;23.5;45.1
76046;BME280;64741;41.730;44.788;2024-02-15T23:59:49;993.2;;;23.5;45.1
